Time;durP1;ratioP1;P1;durP2;ratioP2;P2;SDS_P1;SDS_P2;PMS_P1;PMS_P2;Temp;Humidity;BMP_temperature;BMP_pressure;BME280_temperature;BME280_humidity;BME280_pressure;Samples;Min_cycle;Max_cycle;Signal;HPM_P1;HPM_P2
2023/09/11 00:00:59;;;;;;;10.10;6.60;;;28.40;63.10;29.00;100679.00;;;;5009969;28;20180;-48
2023/09/11 00:03:25;;;;;;;9.25;6.25;;;28.40;63.10;29.00;100693.00;;;;5009160;28;20685;-48
2023/09/11 00:05:51;;;;;;;7.95;6.50;;;28.40;63.20;29.00;100673.00;;;;4991834;28;20180;-48
2023/09/11 00:08:17;;;;;;;9.88;6.68;;;28.30;63.00;29.00;100679.00;;;;5008723;28;20207;-47
2023/09/11 00:10:42;;;;;;;7.75;5.97;;;28.30;62.90;29.00;100677.00;;;;5008917;28;20716;-47
2023/09/11 00:13:08;;;;;;;8.85;5.65;;;28.30;62.80;29.00;100673.00;;;;5015712;28;20242;-48
2023/09/11 00:15:35;;;;;;;9.07;6.28;;;28.30;63.00;29.00;100669.00;;;;5032730;28;20214;-49
2023/09/11 00:18:01;;;;;;;6.47;5.57;;;28.40;63.30;29.00;100662.00;;;;5011594;28;20218;-48
2023/09/11 00:20:27;;;;;;;9.13;6.18;;;28.30;63.30;28.90;100666.00;;;;5011193;28;20184;-48
2023/09/11 00:22:53;;;;;;;9.02;6.00;;;28.40;63.10;28.90;100647.00;;;;5008935;28;20605;-48
2023/09/11 00:25:18;;;;;;;9.45;5.95;;;28.30;62.70;28.90;100652.00;;;;4977618;28;20329;-49
2023/09/11 00:27:44;;;;;;;9.25;6.38;;;28.30;62.60;28.90;100663.00;;;;5010468;28;20179;-48
2023/09/11 00:30:10;;;;;;;7.35;5.90;;;28.30;62.60;28.90;100650.00;;;;5019495;28;20163;-48
2023/09/11 00:32:36;;;;;;;8.65;6.22;;;28.30;62.60;28.90;100649.00;;;;5027982;28;20209;-49
2023/09/11 00:35:02;;;;;;;10.25;6.28;;;28.30;62.70;28.90;100651.00;;;;5009101;28;20717;-48
2023/09/11 00:37:28;;;;;;;6.80;6.10;;;28.30;62.30;28.90;100642.00;;;;5009045;28;20262;-48
2023/09/11 00:39:53;;;;;;;8.73;6.38;;;28.30;62.60;28.80;100645.00;;;;5009135;28;20213;-48
2023/09/11 00:42:19;;;;;;;7.03;6.30;;;28.30;62.80;28.80;100632.00;;;;5008942;28;20273;-49
2023/09/11 00:44:45;;;;;;;7.43;5.85;;;28.30;62.80;28.80;100642.00;;;;5009411;28;20238;-48
2023/09/11 00:47:10;;;;;;;8.10;5.95;;;28.30;62.60;28.80;100630.00;;;;5007672;28;20541;-48
2023/09/11 00:49:36;;;;;;;9.13;6.03;;;28.20;62.70;28.80;100641.00;;;;5007466;28;20717;-49
2023/09/11 00:52:02;;;;;;;8.95;6.30;;;28.30;62.70;28.70;100648.00;;;;5007617;28;20202;-49
2023/09/11 00:54:28;;;;;;;8.90;5.95;;;28.20;62.70;28.70;100642.00;;;;5008713;28;20190;-48
2023/09/11 00:56:54;;;;;;;9.30;6.15;;;28.20;62.70;28.70;100651.00;;;;4991026;28;20194;-47
2023/09/11 00:59:20;;;;;;;7.68;6.35;;;28.20;62.90;28.70;100631.00;;;;4974958;28;20195;-49
2023/09/11 01:01:46;;;;;;;9.80;6.80;;;28.10;62.90;28.60;100642.00;;;;4974835;28;20215;-48
2023/09/11 01:04:12;;;;;;;7.15;6.07;;;28.10;62.70;28.60;100644.00;;;;4990924;28;20167;-48
2023/09/11 01:06:38;;;;;;;11.77;6.30;;;28.10;63.00;28.30;100643.00;;;;5006807;28;20179;-49
2023/09/11 01:09:04;;;;;;;6.90;6.07;;;28.10;63.00;28.60;100634.00;;;;5001255;28;20242;-49
2023/09/11 01:11:29;;;;;;;7.40;6.38;;;28.10;63.00;28.60;100631.00;;;;5006791;28;20172;-49
2023/09/11 01:13:56;;;;;;;6.63;6.03;;;28.10;62.70;28.50;100637.00;;;;4990709;28;20206;-49
2023/09/11 01:16:36;;;;;;;7.55;6.50;;;28.00;62.60;28.50;100643.00;;;;5007157;28;20259;-49
2023/09/11 01:19:41;;;;;;;7.30;6.15;;;28.00;62.70;28.50;100635.00;;;;5007021;28;20219;-49
2023/09/11 01:22:19;;;;;;;7.38;6.68;;;28.00;62.70;28.50;100628.00;;;;5007193;28;20883;-48
2023/09/11 01:25:26;;;;;;;6.85;6.13;;;28.00;62.70;28.40;100638.00;;;;5023661;28;20176;-49
2023/09/11 01:28:29;;;;;;;9.02;6.40;;;28.00;63.10;28.40;100644.00;;;;5008329;28;20207;-47
2023/09/11 01:30:54;;;;;;;10.00;6.57;;;28.00;63.10;28.40;100643.00;;;;5007480;28;20205;-48
2023/09/11 01:33:20;;;;;;;7.65;6.30;;;27.90;63.00;28.40;100640.00;;;;4990573;28;20258;-48
2023/09/11 01:35:46;;;;;;;7.38;6.43;;;28.00;62.90;28.40;100635.00;;;;5008160;28;20180;-48
2023/09/11 01:38:12;;;;;;;8.40;6.38;;;27.90;62.80;28.40;100639.00;;;;5007463;28;20191;-49
2023/09/11 01:40:39;;;;;;;7.22;6.53;;;27.90;62.90;28.30;100623.00;;;;5006932;28;20268;-49
2023/09/11 01:43:07;;;;;;;6.90;6.20;;;27.90;63.00;28.30;100623.00;;;;4974562;28;20211;-48
2023/09/11 01:45:33;;;;;;;7.50;6.32;;;27.80;62.80;28.30;100623.00;;;;4990555;28;20175;-49
2023/09/11 01:47:59;;;;;;;7.13;6.47;;;27.80;62.90;28.30;100627.00;;;;4992728;28;20203;-48
2023/09/11 01:50:25;;;;;;;7.05;6.43;;;27.80;63.10;28.30;100624.00;;;;5010257;28;20179;-48
2023/09/11 01:52:50;;;;;;;7.60;6.13;;;27.90;62.90;28.30;100620.00;;;;4994010;28;20187;-48
2023/09/11 01:55:16;;;;;;;6.82;6.18;;;27.90;62.70;28.30;100611.00;;;;5010429;28;20199;-48
2023/09/11 01:57:42;;;;;;;7.18;6.10;;;27.90;62.80;28.30;100622.00;;;;4993527;28;20241;-48
2023/09/11 02:00:09;;;;;;;7.00;6.30;;;27.80;62.90;28.20;100609.00;;;;5010530;28;20579;-48
2023/09/11 02:02:35;;;;;;;7.80;6.10;;;27.80;63.00;28.20;100617.00;;;;5011651;28;20199;-48
2023/09/11 02:05:01;;;;;;;6.78;6.10;;;27.80;62.90;28.20;100615.00;;;;5011633;28;20734;-48
2023/09/11 02:07:27;;;;;;;8.18;6.65;;;27.80;63.30;28.20;100612.00;;;;5011108;28;20188;-48
2023/09/11 02:09:53;;;;;;;7.47;5.97;;;27.70;63.30;28.20;100613.00;;;;5009456;28;20223;-48
2023/09/11 02:12:18;;;;;;;6.50;5.90;;;27.70;63.20;28.20;100610.00;;;;5010052;28;20218;-48
2023/09/11 02:14:44;;;;;;;8.00;5.88;;;27.70;63.90;28.10;100610.00;;;;5011049;28;20286;-47
2023/09/11 02:17:10;;;;;;;7.18;6.18;;;27.70;63.20;28.10;100609.00;;;;5009772;28;20187;-48
2023/09/11 02:19:36;;;;;;;9.73;6.68;;;27.80;62.90;28.10;100605.00;;;;5009961;28;20689;-50
2023/09/11 02:22:01;;;;;;;7.30;6.03;;;27.70;62.70;28.10;100609.00;;;;5011375;28;20283;-49
2023/09/11 02:24:27;;;;;;;6.57;5.95;;;27.70;62.90;28.10;100603.00;;;;5010302;28;20184;-49
2023/09/11 02:26:55;;;;;;;7.88;6.07;;;27.70;63.10;28.00;100610.00;;;;5025931;28;20271;-48
2023/09/11 02:29:20;;;;;;;8.05;5.75;;;27.60;63.10;28.00;100615.00;;;;5021270;28;20759;-47
2023/09/11 02:31:46;;;;;;;8.05;6.22;;;27.60;63.00;28.00;100611.00;;;;5012424;28;20218;-47
2023/09/11 02:34:12;;;;;;;7.13;5.78;;;27.60;63.00;28.00;100616.00;;;;5012585;28;20187;-48
2023/09/11 02:36:38;;;;;;;7.65;5.78;;;27.60;63.10;28.00;100610.00;;;;5012262;28;20195;-56
2023/09/11 02:39:04;;;;;;;6.20;5.53;;;27.50;63.10;27.90;100613.00;;;;5012687;28;20338;-48
2023/09/11 02:41:29;;;;;;;7.43;5.80;;;27.50;63.10;27.90;100604.00;;;;4985435;28;20239;-49
2023/09/11 02:43:55;;;;;;;8.80;6.07;;;27.50;63.00;27.90;100550.00;;;;5029619;28;20184;-48
2023/09/11 02:46:21;;;;;;;7.25;6.30;;;27.50;62.90;27.90;100612.00;;;;5010976;28;20269;-48
2023/09/11 02:48:47;;;;;;;7.95;6.20;;;27.50;62.70;27.80;100613.00;;;;5011154;28;20670;-49
2023/09/11 02:51:14;;;;;;;6.88;6.28;;;27.40;62.80;27.80;100607.00;;;;4993528;28;20209;-47
2023/09/11 02:53:39;;;;;;;8.68;6.22;;;27.40;63.00;27.80;100603.00;;;;5009720;28;20183;-48
2023/09/11 02:56:05;;;;;;;6.68;6.07;;;27.30;62.90;27.80;100591.00;;;;5011186;28;20179;-48
2023/09/11 02:58:31;;;;;;;10.07;6.30;;;27.30;62.90;27.80;100598.00;;;;5009636;28;20199;-48
2023/09/11 03:01:04;;;;;;;6.95;6.13;;;27.30;62.90;27.70;100596.00;;;;5010870;28;20196;-48
2023/09/11 03:03:30;;;;;;;7.63;5.82;;;27.30;62.90;27.70;100592.00;;;;5011392;28;20210;-48
2023/09/11 03:05:57;;;;;;;7.65;6.10;;;27.30;62.90;27.70;100597.00;;;;5011366;28;20183;-49
2023/09/11 03:08:23;;;;;;;7.40;5.90;;;27.30;62.90;27.70;100598.00;;;;5011026;28;20202;-48
2023/09/11 03:10:49;;;;;;;6.93;6.22;;;27.30;63.30;27.60;100596.00;;;;4977811;28;20179;-48
2023/09/11 03:13:15;;;;;;;7.93;6.13;;;27.30;62.90;27.60;100594.00;;;;5010319;28;20179;-48
2023/09/11 03:15:42;;;;;;;8.70;6.07;;;27.20;62.60;27.60;100596.00;;;;5011906;28;20566;-48
2023/09/11 03:18:08;;;;;;;7.30;6.15;;;27.20;62.90;27.60;100599.00;;;;5011388;28;20253;-48
2023/09/11 03:20:34;;;;;;;7.10;6.30;;;27.10;62.90;27.50;100590.00;;;;5011574;28;20191;-47
2023/09/11 03:23:00;;;;;;;7.45;5.80;;;27.10;63.10;27.50;100593.00;;;;5011276;28;20200;-49
2023/09/11 03:25:29;;;;;;;7.03;6.30;;;27.10;63.10;27.50;100581.00;;;;5011115;28;20180;-48
2023/09/11 03:27:54;;;;;;;7.28;6.05;;;27.10;63.10;27.50;100599.00;;;;5009662;28;20203;-48
2023/09/11 03:30:20;;;;;;;9.55;6.00;;;27.10;63.30;27.50;100594.00;;;;5009816;28;20714;-48
2023/09/11 03:32:46;;;;;;;6.13;5.53;;;27.10;63.10;27.50;100588.00;;;;5011129;28;20183;-47
2023/09/11 03:35:12;;;;;;;6.55;5.95;;;27.10;63.10;27.40;100588.00;;;;5010876;28;20274;-47
2023/09/11 03:37:37;;;;;;;8.10;6.07;;;27.10;62.90;27.40;100587.00;;;;5009629;28;20191;-46
2023/09/11 03:40:07;;;;;;;8.80;5.88;;;27.10;62.70;27.40;100587.00;;;;5009803;28;20171;-46
2023/09/11 03:42:34;;;;;;;6.40;5.80;;;27.10;62.70;27.40;100575.00;;;;5010824;28;20200;-47
2023/09/11 03:45:00;;;;;;;7.60;6.63;;;27.00;62.70;27.40;100568.00;;;;5010925;28;20188;-47
2023/09/11 03:47:26;;;;;;;6.88;6.13;;;27.00;62.60;27.40;100571.00;;;;5009085;28;20180;-47
2023/09/11 03:49:51;;;;;;;6.55;5.70;;;27.00;62.60;27.40;100580.00;;;;5009627;28;20700;-46
2023/09/11 03:52:17;;;;;;;8.57;5.90;;;27.00;62.50;27.30;100572.00;;;;5011245;28;20187;-47
2023/09/11 03:54:43;;;;;;;8.55;5.97;;;27.00;62.60;27.30;100569.00;;;;5011026;28;20267;-47
2023/09/11 03:57:08;;;;;;;6.22;5.50;;;26.90;62.60;27.30;100570.00;;;;5010482;28;20183;-47
2023/09/11 03:59:34;;;;;;;6.28;5.68;;;27.00;62.60;27.30;100574.00;;;;5008778;28;20199;-46
2023/09/11 04:02:00;;;;;;;9.27;5.85;;;27.00;62.50;27.30;100576.00;;;;5009902;28;20257;-47
2023/09/11 04:04:26;;;;;;;7.65;6.03;;;27.00;62.50;27.30;100568.00;;;;5010050;28;20214;-47
2023/09/11 04:06:51;;;;;;;9.10;6.18;;;26.90;62.30;27.20;100563.00;;;;5010142;28;20179;-48
2023/09/11 04:09:17;;;;;;;10.38;6.07;;;26.90;62.50;27.20;100563.00;;;;5010032;28;20200;-47
2023/09/11 04:11:43;;;;;;;6.88;5.85;;;26.80;62.50;27.20;100563.00;;;;5010096;28;20202;-46
2023/09/11 04:14:08;;;;;;;7.95;5.78;;;26.80;62.50;27.20;100572.00;;;;5010230;28;20183;-47
2023/09/11 04:16:34;;;;;;;8.68;6.00;;;26.80;62.50;27.20;100559.00;;;;5009792;28;20186;-46
2023/09/11 04:19:00;;;;;;;6.70;5.93;;;26.80;62.50;27.10;100559.00;;;;5009893;28;20246;-47
2023/09/11 04:21:26;;;;;;;7.65;6.03;;;26.80;62.50;27.10;100554.00;;;;5009752;28;20182;-48
2023/09/11 04:23:51;;;;;;;8.73;5.82;;;26.80;62.50;27.10;100547.00;;;;5010140;28;20186;-46
2023/09/11 04:26:17;;;;;;;8.25;6.15;;;26.70;62.40;27.10;100550.00;;;;5010128;28;20199;-47
2023/09/11 04:28:43;;;;;;;5.97;5.47;;;26.70;62.40;27.10;100565.00;;;;5009498;28;20203;-47
2023/09/11 04:31:08;;;;;;;7.35;6.03;;;26.80;62.60;27.00;100551.00;;;;5009905;28;20689;-47
2023/09/11 04:33:35;;;;;;;7.53;6.18;;;26.70;62.60;27.00;100553.00;;;;5009562;28;20186;-47
2023/09/11 04:36:00;;;;;;;5.65;5.18;;;26.70;62.40;27.00;100554.00;;;;5005793;28;20241;-47
2023/09/11 04:38:26;;;;;;;9.07;5.60;;;26.70;62.40;27.00;100549.00;;;;5008256;28;20199;-47
2023/09/11 04:40:56;;;;;;;6.60;5.70;;;26.70;62.40;27.00;100547.00;;;;5009640;28;20230;-46
2023/09/11 04:43:23;;;;;;;7.68;5.50;;;26.70;62.40;26.80;100559.00;;;;5009537;28;20203;-47
2023/09/11 04:45:49;;;;;;;6.93;5.50;;;26.60;62.30;26.90;100553.00;;;;5009317;28;20206;-47
2023/09/11 04:48:15;;;;;;;7.57;5.70;;;26.60;62.40;26.90;100548.00;;;;5007723;28;20709;-49
2023/09/11 04:50:40;;;;;;;8.48;6.05;;;26.60;62.50;26.90;100529.00;;;;5006805;28;20187;-47
2023/09/11 04:53:06;;;;;;;7.13;5.97;;;26.50;62.50;26.90;100544.00;;;;5003233;28;20484;-47
2023/09/11 04:55:32;;;;;;;7.00;5.40;;;26.50;62.50;26.90;100544.00;;;;5007892;28;20191;-47
2023/09/11 04:57:57;;;;;;;6.57;5.50;;;26.50;62.60;26.90;100537.00;;;;5007072;28;20208;-47
2023/09/11 05:00:24;;;;;;;21.35;19.25;;;26.50;62.20;26.80;100536.00;;;;5008988;28;20179;-47
2023/09/11 05:02:50;;;;;;;13.02;11.73;;;26.50;62.50;26.80;100541.00;;;;5009027;28;20214;-47
2023/09/11 05:05:16;;;;;;;12.30;9.27;;;26.50;62.50;26.80;100551.00;;;;5009469;28;20653;-48
2023/09/11 05:07:42;;;;;;;8.85;7.63;;;26.50;62.50;26.80;100556.00;;;;5008752;28;20218;-47
2023/09/11 05:10:08;;;;;;;9.88;7.15;;;26.50;62.50;26.80;100546.00;;;;5009164;28;20562;-47
2023/09/11 05:12:34;;;;;;;9.30;7.15;;;26.50;62.70;26.80;100548.00;;;;5009088;28;20274;-47
2023/09/11 05:15:00;;;;;;;8.70;6.03;;;26.50;62.50;26.70;100555.00;;;;5008773;28;20217;-46
2023/09/11 05:17:25;;;;;;;8.07;6.40;;;26.40;62.70;26.70;100554.00;;;;5008420;28;20241;-46
2023/09/11 05:19:51;;;;;;;8.95;6.53;;;26.40;62.60;26.70;100558.00;;;;5008609;28;20210;-47
2023/09/11 05:22:17;;;;;;;8.57;6.13;;;26.40;62.70;26.70;100551.00;;;;5010299;28;20207;-46
2023/09/11 05:24:43;;;;;;;9.63;6.53;;;26.40;62.70;26.70;100547.00;;;;5012071;28;20720;-47
2023/09/11 05:27:08;;;;;;;9.48;6.40;;;26.40;63.00;26.70;100556.00;;;;5012643;28;20172;-47
2023/09/11 05:29:34;;;;;;;8.13;5.97;;;26.40;62.80;26.70;100552.00;;;;5011328;28;20199;-46
2023/09/11 05:32:00;;;;;;;7.88;5.80;;;26.40;63.10;26.60;100552.00;;;;5012778;28;20588;-47
2023/09/11 05:34:25;;;;;;;8.57;5.78;;;26.30;63.20;26.60;100558.00;;;;5012220;28;20704;-47
2023/09/11 05:36:51;;;;;;;7.63;5.93;;;26.30;63.30;26.60;100548.00;;;;5012540;28;20190;-47
2023/09/11 05:39:17;;;;;;;6.78;5.70;;;26.30;63.60;26.60;100551.00;;;;5012484;28;20215;-47
2023/09/11 05:41:43;;;;;;;6.00;5.40;;;26.30;64.10;26.60;100555.00;;;;5012423;28;20202;-47
2023/09/11 05:44:08;;;;;;;7.53;6.07;;;26.30;63.10;26.60;100555.00;;;;5011823;28;20203;-47
2023/09/11 05:46:34;;;;;;;6.65;5.95;;;26.30;63.20;26.60;100560.00;;;;5012265;28;20261;-46
2023/09/11 05:49:00;;;;;;;9.18;6.40;;;26.30;63.20;26.50;100562.00;;;;5012284;28;20329;-47
2023/09/11 05:51:25;;;;;;;7.45;6.22;;;26.20;63.50;26.50;100570.00;;;;5012114;28;20210;-47
2023/09/11 05:53:51;;;;;;;8.43;5.93;;;26.20;63.40;26.50;100558.00;;;;5012133;28;20681;-47
2023/09/11 05:56:17;;;;;;;9.57;6.35;;;26.20;63.60;26.50;100566.00;;;;5012797;28;20191;-47
2023/09/11 05:58:43;;;;;;;8.95;5.72;;;26.20;63.70;26.40;100565.00;;;;5011185;28;20200;-47
2023/09/11 06:01:09;;;;;;;9.18;5.75;;;26.10;63.30;26.40;100563.00;;;;4994858;28;20674;-47
2023/09/11 06:03:35;;;;;;;10.50;6.15;;;26.20;63.50;26.40;100564.00;;;;5012467;28;20302;-46
2023/09/11 06:06:00;;;;;;;7.18;5.60;;;26.20;63.50;26.40;100570.00;;;;5012359;28;20188;-57
2023/09/11 06:08:26;;;;;;;7.57;5.53;;;26.10;63.60;26.40;100575.00;;;;5012061;28;20210;-57
2023/09/11 06:10:52;;;;;;;8.27;5.78;;;26.00;63.70;26.40;100565.00;;;;5011675;28;20186;-56
2023/09/11 06:13:18;;;;;;;8.07;5.95;;;26.00;63.60;26.40;100571.00;;;;5011795;28;20214;-57
2023/09/11 06:15:44;;;;;;;6.72;5.20;;;26.00;63.50;26.40;100573.00;;;;5010640;28;20200;-57
2023/09/11 06:18:09;;;;;;;7.30;5.50;;;26.00;63.60;26.40;100573.00;;;;5010416;28;20249;-57
2023/09/11 06:20:35;;;;;;;7.60;5.60;;;26.00;63.50;26.40;100581.00;;;;5011982;28;20230;-57
2023/09/11 06:23:01;;;;;;;7.38;5.40;;;26.00;63.50;26.40;100571.00;;;;5010265;28;20217;-57
2023/09/11 06:25:27;;;;;;;6.03;5.18;;;26.00;63.50;26.40;100580.00;;;;5011828;28;20555;-57
2023/09/11 06:27:53;;;;;;;6.50;5.40;;;26.00;63.60;26.40;100579.00;;;;5011461;28;20286;-58
2023/09/11 06:30:18;;;;;;;6.72;5.20;;;26.00;63.70;26.40;100579.00;;;;5011836;28;20207;-56
2023/09/11 06:32:45;;;;;;;6.65;5.80;;;26.00;63.70;26.40;100590.00;;;;5025406;28;20247;-57
2023/09/11 06:35:10;;;;;;;6.13;5.53;;;26.00;63.80;26.40;100591.00;;;;5018581;28;20298;-57
2023/09/11 06:37:37;;;;;;;9.00;6.20;;;26.00;63.90;26.40;100592.00;;;;5013065;28;20270;-56
2023/09/11 06:40:07;;;;;;;6.82;5.80;;;26.00;64.20;26.40;100592.00;;;;5012929;28;20198;-58
2023/09/11 06:42:33;;;;;;;6.80;5.93;;;26.00;64.20;26.40;100586.00;;;;5012424;28;20203;-57
2023/09/11 06:44:59;;;;;;;9.38;6.13;;;25.90;64.30;26.40;100586.00;;;;5013084;28;20184;-58
2023/09/11 06:47:25;;;;;;;8.52;6.03;;;26.00;64.50;26.30;100579.00;;;;5017196;28;20210;-57
2023/09/11 06:49:51;;;;;;;8.93;6.38;;;26.00;64.60;26.30;100588.00;;;;5015839;28;20843;-57
2023/09/11 06:52:17;;;;;;;8.18;6.20;;;25.90;64.90;26.30;100591.00;;;;5011805;28;20275;-56
2023/09/11 06:54:43;;;;;;;11.18;6.15;;;25.90;64.80;26.30;100588.00;;;;5011560;28;20195;-57
2023/09/11 06:57:08;;;;;;;7.00;5.88;;;25.90;64.80;26.30;100589.00;;;;5011590;28;20196;-57
2023/09/11 06:59:34;;;;;;;6.70;5.80;;;26.00;64.60;26.30;100589.00;;;;5011464;28;20235;-57
2023/09/11 07:02:00;;;;;;;7.50;5.75;;;26.00;65.50;26.30;100586.00;;;;5011699;28;20203;-56
2023/09/11 07:04:25;;;;;;;8.70;5.95;;;25.90;64.50;26.30;100579.00;;;;5008673;28;20192;-56
2023/09/11 07:06:51;;;;;;;7.78;5.80;;;25.90;64.50;26.30;100592.00;;;;5010786;28;20186;-56
2023/09/11 07:09:17;;;;;;;7.75;6.13;;;25.90;64.50;26.30;100579.00;;;;5009528;28;20262;-57
2023/09/11 07:11:43;;;;;;;7.00;5.88;;;25.90;64.50;26.30;100577.00;;;;5011053;28;20712;-56
2023/09/11 07:14:12;;;;;;;9.02;6.10;;;25.90;64.50;26.30;100574.00;;;;5011139;28;20184;-56
2023/09/11 07:16:39;;;;;;;6.85;5.90;;;25.90;64.50;26.30;100576.00;;;;5011031;28;20270;-56
2023/09/11 07:19:04;;;;;;;7.00;5.95;;;25.90;64.80;26.30;100569.00;;;;5009971;28;20239;-56
2023/09/11 07:21:30;;;;;;;6.53;5.80;;;25.90;64.90;26.30;100562.00;;;;5010375;28;20697;-56
2023/09/11 07:23:56;;;;;;;7.25;5.88;;;25.80;64.90;26.30;100569.00;;;;5010599;28;20658;-56
2023/09/11 07:26:22;;;;;;;6.47;5.60;;;25.80;65.00;26.30;100566.00;;;;5009562;28;20184;-57
2023/09/11 07:28:58;;;;;;;7.43;5.40;;;25.80;65.00;26.30;100566.00;;;;4991518;28;20222;-57
2023/09/11 07:31:23;;;;;;;9.50;5.50;;;25.80;65.20;26.30;100567.00;;;;5010950;28;20206;-56
2023/09/11 07:33:50;;;;;;;7.30;5.20;;;25.80;65.40;26.40;100559.00;;;;5011087;28;20179;-55
2023/09/11 07:36:17;;;;;;;7.03;5.38;;;25.80;65.40;26.40;100563.00;;;;5010583;28;20567;-56
2023/09/11 07:38:44;;;;;;;7.35;5.80;;;25.80;65.50;26.40;100553.00;;;;5010367;28;20278;-56
2023/09/11 07:41:19;;;;;;;8.23;5.40;;;25.80;65.60;26.40;100559.00;;;;5010678;28;20277;-56
2023/09/11 07:43:49;;;;;;;7.40;5.47;;;25.80;65.70;26.40;100556.00;;;;5010305;28;20211;-56
2023/09/11 07:46:20;;;;;;;7.50;5.38;;;25.80;65.90;26.40;100557.00;;;;5010338;28;20188;-55
2023/09/11 07:48:46;;;;;;;5.60;5.07;;;25.80;66.00;26.40;100555.00;;;;5010554;28;20374;-56
2023/09/11 07:51:12;;;;;;;6.18;5.57;;;25.80;66.00;26.40;100562.00;;;;5011033;28;20191;-56
2023/09/11 07:53:41;;;;;;;5.45;4.95;;;25.80;66.00;26.40;100558.00;;;;5010986;28;20188;-56
2023/09/11 07:56:07;;;;;;;6.45;5.10;;;25.80;66.10;26.50;100558.00;;;;5010833;28;20184;-56
2023/09/11 07:58:34;;;;;;;6.00;4.90;;;25.80;66.20;26.50;100571.00;;;;5010141;28;20707;-57
2023/09/11 08:01:00;;;;;;;6.85;5.10;;;25.80;66.20;26.50;100569.00;;;;5010281;28;20190;-56
2023/09/11 08:03:26;;;;;;;7.15;5.60;;;25.90;66.30;26.50;100565.00;;;;5010340;28;20237;-56
2023/09/11 08:05:53;;;;;;;6.45;5.10;;;25.80;66.00;26.50;100565.00;;;;5009448;28;20677;-56
2023/09/11 08:08:19;;;;;;;6.20;5.15;;;25.90;66.40;26.50;100565.00;;;;5010220;28;20274;-56
2023/09/11 08:10:44;;;;;;;5.20;4.70;;;25.90;66.20;26.50;100560.00;;;;5009958;28;20184;-56
2023/09/11 08:13:10;;;;;;;5.32;4.80;;;26.00;66.30;26.60;100556.00;;;;5010150;28;20234;-56
2023/09/11 08:15:36;;;;;;;6.25;4.95;;;26.00;66.20;26.60;100560.00;;;;5009738;28;20554;-56
2023/09/11 08:18:01;;;;;;;6.60;5.20;;;26.00;66.30;26.60;100566.00;;;;5009618;28;20214;-56
2023/09/11 08:20:28;;;;;;;6.65;5.18;;;26.00;66.20;26.60;100557.00;;;;4992266;28;20191;-56
2023/09/11 08:22:54;;;;;;;5.25;4.75;;;26.00;66.30;26.60;100565.00;;;;5008999;28;20192;-56
2023/09/11 08:25:20;;;;;;;6.25;4.95;;;26.00;66.20;26.60;100561.00;;;;5010084;28;20223;-56
2023/09/11 08:27:46;;;;;;;6.43;4.90;;;26.00;66.10;26.60;100559.00;;;;5009714;28;20593;-56
2023/09/11 08:30:13;;;;;;;5.85;4.80;;;26.10;66.20;26.70;100563.00;;;;5010224;28;20222;-56
2023/09/11 08:32:39;;;;;;;5.47;4.93;;;26.10;66.10;26.70;100569.00;;;;5009703;28;20187;-58
2023/09/11 08:35:05;;;;;;;6.47;5.10;;;26.10;66.10;26.70;100571.00;;;;5010012;28;20572;-56
2023/09/11 08:37:30;;;;;;;5.90;4.70;;;26.10;66.10;26.70;100571.00;;;;5009490;28;20199;-56
2023/09/11 08:39:56;;;;;;;6.13;4.95;;;26.10;66.00;26.70;100565.00;;;;5019093;28;20183;-57
2023/09/11 08:42:25;;;;;;;5.80;4.63;;;26.20;66.20;26.70;100581.00;;;;5016207;28;20227;-56
2023/09/11 08:44:51;;;;;;;5.45;4.95;;;26.10;66.10;26.70;100575.00;;;;5010323;28;20182;-56
2023/09/11 08:47:16;;;;;;;5.10;4.57;;;26.10;66.20;26.70;100558.00;;;;5010418;28;20184;-56
2023/09/11 08:49:44;;;;;;;6.65;5.03;;;26.10;66.60;26.70;100556.00;;;;5009018;28;20632;-55
2023/09/11 08:52:14;;;;;;;5.20;4.70;;;26.20;66.30;26.80;100569.00;;;;5011266;28;20192;-57
2023/09/11 08:54:42;;;;;;;5.10;4.60;;;26.20;66.40;26.70;100566.00;;;;5013157;28;20183;-56
2023/09/11 08:57:10;;;;;;;5.57;5.07;;;26.20;66.40;26.80;100563.00;;;;5023500;28;20175;-58
2023/09/11 08:59:37;;;;;;;5.57;4.68;;;26.20;66.60;26.80;100567.00;;;;5009725;28;20295;-56
2023/09/11 09:02:03;;;;;;;5.13;4.63;;;26.20;66.60;26.80;100569.00;;;;4992733;28;20350;-56
2023/09/11 09:04:29;;;;;;;5.40;4.90;;;26.20;66.70;26.80;100560.00;;;;5008268;28;20176;-56
2023/09/11 09:06:55;;;;;;;5.10;4.60;;;26.20;66.80;26.80;100548.00;;;;5009420;28;20449;-56
2023/09/11 09:09:21;;;;;;;5.65;5.00;;;26.20;66.70;26.80;100560.00;;;;5008382;28;20203;-57
2023/09/11 09:11:48;;;;;;;5.20;4.70;;;26.20;67.00;26.80;100555.00;;;;5001302;28;20183;-56
2023/09/11 09:14:18;;;;;;;5.30;4.80;;;26.30;67.00;26.80;100559.00;;;;5009616;28;20553;-56
2023/09/11 09:16:45;;;;;;;6.45;4.65;;;26.30;67.10;26.90;100551.00;;;;5009134;28;20182;-57
2023/09/11 09:19:11;;;;;;;5.55;4.85;;;26.30;67.30;26.90;100541.00;;;;5009121;28;20663;-56
2023/09/11 09:21:36;;;;;;;5.18;4.68;;;26.30;67.60;26.90;100540.00;;;;5009635;28;20226;-56
2023/09/11 09:24:12;;;;;;;5.10;4.60;;;26.30;68.40;26.90;100545.00;;;;4991533;28;20192;-56
2023/09/11 09:27:00;;;;;;;5.25;4.75;;;26.30;67.70;26.90;100545.00;;;;5009160;28;20253;-56
2023/09/11 09:29:26;;;;;;;5.95;5.00;;;26.30;67.70;26.90;100536.00;;;;5009413;28;20210;-56
2023/09/11 09:31:52;;;;;;;5.20;4.68;;;26.30;68.00;27.00;100546.00;;;;5009503;28;20180;-56
2023/09/11 09:34:17;;;;;;;5.63;4.80;;;26.30;68.20;27.00;100534.00;;;;5009427;28;20670;-56
2023/09/11 09:36:53;;;;;;;5.65;4.47;;;26.30;68.20;27.00;100549.00;;;;5009043;28;20182;-57
2023/09/11 09:39:19;;;;;;;5.22;4.72;;;26.30;68.30;27.00;100544.00;;;;5008027;28;20218;-56
2023/09/11 09:41:58;;;;;;;5.18;4.68;;;26.30;68.60;27.00;100545.00;;;;5007928;28;20175;-56
2023/09/11 09:44:47;;;;;;;5.32;4.82;;;26.30;68.60;27.00;100531.00;;;;5008173;28;20254;-55
2023/09/11 09:47:16;;;;;;;5.53;4.80;;;26.30;68.80;27.00;100534.00;;;;5009072;28;20207;-56
2023/09/11 09:49:53;;;;;;;5.55;4.50;;;26.30;68.90;27.00;100528.00;;;;5007939;28;20214;-56
2023/09/11 09:52:21;;;;;;;5.00;4.60;;;26.40;69.00;27.10;100528.00;;;;5009146;28;20186;-56
2023/09/11 09:54:52;;;;;;;5.55;5.03;;;26.30;69.20;27.10;100526.00;;;;5008932;28;20187;-56
2023/09/11 09:57:20;;;;;;;5.45;4.88;;;26.30;69.30;27.10;100519.00;;;;5009130;28;20266;-56
2023/09/11 09:59:52;;;;;;;5.20;4.70;;;26.30;69.50;27.10;100520.00;;;;5008060;28;20216;-56
2023/09/11 10:02:34;;;;;;;6.95;5.20;;;26.30;69.70;27.10;100517.00;;;;5009551;28;20262;-56
2023/09/11 10:05:07;;;;;;;5.05;4.45;;;26.30;69.90;27.10;100517.00;;;;5009088;28;20684;-56
2023/09/11 10:07:44;;;;;;;5.22;4.80;;;26.40;70.10;27.10;100512.00;;;;5008810;28;20195;-56
2023/09/11 10:10:29;;;;;;;6.13;4.82;;;26.40;70.00;27.10;100515.00;;;;5007463;28;20172;-56
2023/09/11 10:13:05;;;;;;;4.65;4.25;;;26.40;70.20;27.20;100515.00;;;;5005547;28;20183;-56
2023/09/11 10:15:32;;;;;;;6.05;4.50;;;26.40;70.40;27.20;100511.00;;;;5010279;28;20222;-56
2023/09/11 10:17:58;;;;;;;5.53;4.55;;;26.50;70.50;27.20;100512.00;;;;5012083;28;20210;-56
2023/09/11 10:20:24;;;;;;;5.05;4.55;;;26.50;70.40;27.20;100509.00;;;;5012380;28;20188;-57
2023/09/11 10:22:54;;;;;;;6.32;4.43;;;26.50;70.50;27.20;100508.00;;;;5012569;28;20203;-56
2023/09/11 10:25:21;;;;;;;5.07;4.30;;;26.50;70.50;27.20;100502.00;;;;5012348;28;20215;-56
2023/09/11 10:27:49;;;;;;;6.10;4.40;;;26.50;70.40;27.30;100504.00;;;;5010927;28;20230;-56
2023/09/11 10:30:20;;;;;;;4.97;4.47;;;26.60;70.60;27.30;100496.00;;;;5012409;28;20178;-56
2023/09/11 10:32:54;;;;;;;4.82;4.43;;;26.60;70.60;27.30;100508.00;;;;5010636;28;20195;-56
2023/09/11 10:35:20;;;;;;;5.03;4.50;;;26.60;70.60;27.30;100503.00;;;;5011367;28;20187;-56
2023/09/11 10:37:46;;;;;;;5.85;4.85;;;26.60;70.60;27.30;100500.00;;;;5012139;28;20688;-56
2023/09/11 10:40:11;;;;;;;5.22;4.72;;;26.60;70.80;27.30;100496.00;;;;4995091;28;20234;-56
2023/09/11 10:42:37;;;;;;;4.75;4.35;;;26.60;70.80;27.40;100507.00;;;;4994421;28;20215;-57
2023/09/11 10:45:04;;;;;;;5.35;4.85;;;26.60;71.10;27.40;100496.00;;;;5011624;28;20183;-56
2023/09/11 10:47:29;;;;;;;5.03;4.53;;;26.60;71.40;27.40;100504.00;;;;5011846;28;20180;-56